Buoy 46535

sailwx.info

Track history (hours):
 
Tides and Currents Weather Stations Pressure Air Temp Water Temp Dewpoint Dewpoint Depression Visibility Wind Speed Wind Dir Waves Ship Positions

Drifting buoy 46535

Last reported at 2015-Jan-26 01:00 UTC. Time now 2015-Jan-26 02:21 UTC.
Position N 53°07' W 170°36'.

Barometer 994.0 mb
Water temperature 5.6 ° C

Date/timePositionNaut miles runAvg speedWind from/ knotsBaromVisibWave heightAir tempDewpointWater temp
2015-Jan-26 01:00N 53°07' W 170°36'2 2.1 994.0 5.6
2015-Jan-26 00:00N 53°06' W 170°40'1 0.7 994.8 5.6
2015-Jan-25 22:50N 53°06' W 170°40'2 2.1 995.7 5.6
2015-Jan-25 21:50N 53°05' W 170°44'3 2.7 996.4 5.6
2015-Jan-25 20:50N 53°03' W 170°47'0 0.0 996.9 5.6
2015-Jan-25 20:00N 53°03' W 170°47'1 0.9 997.3 5.6
2015-Jan-25 18:50N 53°02' W 170°48'0 0.5 997.6 5.6
2015-Jan-25 17:50N 53°02' W 170°49'4 1.8 998.2 5.6
2015-Jan-25 15:50N 53°02' W 170°55'1 0.7 999.2 5.6
2015-Jan-25 14:50N 53°03' W 170°56'4 4.3 1000.0 5.6
2015-Jan-25 13:50N 53°03' W 171°03'0 0.2 1000.8 5.6
2015-Jan-25 13:00N 53°03' W 171°02'6 3.2 1001.4 5.6
2015-Jan-25 11:00N 53°03' W 171°13'3 2.8 1002.5 5.6
2015-Jan-25 09:50N 53°01' W 171°18'0 0.0 1003.0 5.6
2015-Jan-25 08:50N 53°01' W 171°18'2 1.8 1003.4 5.6
2015-Jan-25 08:00N 53°00' W 171°19'2 1.8 1003.5 5.6
2015-Jan-25 07:00N 52°58' W 171°21'1 1.0 1004.0 5.6
2015-Jan-25 05:50N 52°57' W 171°21'1 0.3 1004.4 5.6
2015-Jan-25 03:50N 52°58' W 171°21'1 1.1 1005.3 5.6
2015-Jan-25 02:50N 52°58' W 171°23'0 0.3 1005.8 5.6
2015-Jan-25 01:50N 52°58' W 171°22'3 2.6 1006.2 5.6
2015-Jan-25 00:50N 52°60' W 171°26'3 2.8 1006.8 5.6
2015-Jan-24 23:50N 52°60' W 171°31'1 1.3 1007.7 5.6
2015-Jan-24 23:00N 53°00' W 171°33'11 5.3 1008.4 5.6
2015-Jan-24 20:50N 52°55' W 171°49'0 0.5 1010.1 5.6
2015-Jan-24 20:00N 52°55' W 171°49'0 0.0 1010.1 5.6
2015-Jan-24 19:00N 52°55' W 171°49'6 2.8 1009.9 5.6
2015-Jan-24 17:00N 52°50' W 171°50'7 3.1 1010.1 5.7
2015-Jan-24 14:50N 52°43' W 171°50'0 0.2 1010.9 5.7
2015-Jan-24 14:00N 52°43' W 171°51'4 3.7 1011.3 5.7
2015-Jan-24 13:00N 52°40' W 171°47'0 0.0 1012.0 5.7
2015-Jan-24 12:00N 52°40' W 171°47'2 1.1 1012.0 5.7
2015-Jan-24 09:50N 52°38' W 171°46'1 0.9 1011.6 5.7
2015-Jan-24 08:50N 52°37' W 171°47'1 1.0 1011.8 5.7
2015-Jan-24 08:00N 52°36' W 171°46'3 3.4 1011.9 5.7
2015-Jan-24 07:00N 52°33' W 171°47'5 1.4 1011.5 5.7
2015-Jan-24 03:50N 52°29' W 171°42'3 2.9 1010.6 5.8
2015-Jan-24 02:50N 52°28' W 171°38'1 0.9 1010.0 5.8
2015-Jan-24 02:00N 52°27' W 171°38'1 0.5 1009.0 5.8
2015-Jan-24 00:00N 52°28' W 171°37'1 1.1 1008.2 5.8
2015-Jan-23 23:00N 52°28' W 171°39'0 0.0 1008.1 5.8
2015-Jan-23 22:00N 52°28' W 171°39'4 3.8 1008.0 5.8
2015-Jan-23 20:50N 52°25' W 171°45'2 0.9 1007.6 5.8
2015-Jan-23 19:00N 52°23' W 171°45'1 0.7 1006.2 5.8
2015-Jan-23 18:00N 52°23' W 171°46'5 5.2 1005.0 5.8
2015-Jan-23 17:00N 52°18' W 171°44'1 1.2 1004.3 5.8
2015-Jan-23 15:50N 52°16' W 171°43'2 2.1 1002.9 5.8
2015-Jan-23 14:50N 52°14' W 171°42'3 2.6 1002.4 5.9
2015-Jan-23 13:50N 52°13' W 171°38'4 4.9 1001.5 5.9
2015-Jan-23 13:00N 52°14' W 171°32'0 0.0 1001.0 5.9
2015-Jan-23 10:50N 52°14' W 171°32'0 0.0 999.1 5.9
2015-Jan-23 09:00N 52°14' W 171°32'2 1.3 998.3 5.9
2015-Jan-23 07:50N 52°15' W 171°30'0 0.1 997.5 5.9
2015-Jan-23 07:00N 52°15' W 171°30'2 1.8 996.4 5.9
2015-Jan-23 06:00N 52°16' W 171°27'2 2.1 995.7 5.9
2015-Jan-23 05:00N 52°15' W 171°24'0 0.1 994.1 5.9
2015-Jan-23 03:50N 52°15' W 171°24'2 2.7 993.2 5.9
2015-Jan-23 03:00N 52°15' W 171°20'0 0.0 991.8 5.9
2015-Jan-23 01:50N 52°15' W 171°20'2 2.8 991.1 5.9
2015-Jan-23 01:00N 52°16' W 171°17'2 1.6 989.9 5.9
2015-Jan-23 00:00N 52°17' W 171°15'1 0.7 990.0 6.0
2015-Jan-22 22:50N 52°17' W 171°13'0 0.3 989.6 6.0
2015-Jan-22 21:50N 52°17' W 171°14'0 0.4 989.4 6.0
2015-Jan-22 20:50N 52°18' W 171°14'2 0.9 988.5 6.0
2015-Jan-22 18:50N 52°17' W 171°12'0 0.5 986.7 6.0
2015-Jan-22 18:00N 52°16' W 171°11'3 2.6 985.9 6.0
2015-Jan-22 17:00N 52°15' W 171°08'3 2.6 985.1 6.0
2015-Jan-22 16:00N 52°14' W 171°04'4 3.5 984.4 6.0
2015-Jan-22 14:50N 52°13' W 170°58'0 0.0 983.7 6.0
2015-Jan-22 13:50N 52°13' W 170°58'8 2.7 983.2 6.0
2015-Jan-22 11:00N 52°15' W 170°46'9 1.7 982.5 6.0
2015-Jan-22 06:00N 52°18' W 170°33'2 1.2 981.0 6.1
2015-Jan-22 04:00N 52°18' W 170°29'0 0.0 980.3 6.2
2015-Jan-22 02:50N 52°18' W 170°29'3 3.5 979.7 6.1
2015-Jan-22 01:50N 52°19' W 170°23'4 3.7 979.2 6.1
2015-Jan-22 00:50N 52°19' W 170°17'0 0.0 979.1 6.1
2015-Jan-21 23:50N 52°19' W 170°17'2 2.3 979.1 6.1
2015-Jan-21 23:00N 52°19' W 170°14'4 1.9 979.4 6.0
2015-Jan-21 21:00N 52°22' W 170°10'3 2.5 979.7 6.0
2015-Jan-21 19:50N 52°24' W 170°06'1 0.3 979.8 6.0
2015-Jan-21 17:50N 52°24' W 170°06'1 1.7 979.9 6.0
2015-Jan-21 17:00N 52°23' W 170°05'0 0.0 980.2 6.0
2015-Jan-21 16:00N 52°23' W 170°05'2 2.1 980.4 6.0
2015-Jan-21 15:00N 52°22' W 170°02'3 1.5 981.0 6.1
2015-Jan-21 12:50N 52°20' W 169°58'1211.8 981.9 6.2
2015-Jan-21 11:50N 52°18' W 169°39'5 1.8 982.3 6.2
2015-Jan-21 09:00N 52°20' W 169°31'4 1.9 983.6 6.2
2015-Jan-21 07:00N 52°21' W 169°25'1 0.5 984.3 6.2
2015-Jan-21 05:50N 52°21' W 169°25'9 4.9 984.3 6.2
2015-Jan-21 04:00N 52°24' W 169°12'4 3.7 985.0 6.2
2015-Jan-21 03:00N 52°25' W 169°06'4 1.8 985.3 6.2
2015-Jan-21 00:50N 52°26' W 168°60'0 0.0 986.6 6.2
2015-Jan-21 00:00N 52°26' W 168°60'4 3.5 987.6 6.2
2015-Jan-20 22:50N 52°28' W 168°54'0 0.2 988.6 6.2
2015-Jan-20 22:00N 52°28' W 168°54'4 3.2 989.5 6.2
2015-Jan-20 20:50N 52°30' W 168°49'6 2.1 990.0 6.2
2015-Jan-20 17:50N 52°33' W 168°40'3 2.9 991.3 6.2
2015-Jan-20 16:50N 52°35' W 168°36'3 0.9 991.9 6.1
2015-Jan-20 14:00N 52°37' W 168°33'5 4.6 994.0 6.0
2015-Jan-20 13:00N 52°38' W 168°26'0 0.0 994.5 6.0
2015-Jan-20 11:50N 52°38' W 168°26'7 3.6 995.4 6.0
2015-Jan-20 09:50N 52°41' W 168°15'2 1.0 996.6 6.0
2015-Jan-20 08:00N 52°41' W 168°12'3 1.4 997.1 6.0
2015-Jan-20 05:50N 52°43' W 168°08'2 2.2 997.1 6.0
2015-Jan-20 05:00N 52°42' W 168°04'3 1.5 997.5 6.0
2015-Jan-20 03:00N 52°43' W 167°59'3 2.9 998.3 6.0
2015-Jan-20 02:00N 52°44' W 167°55'4 3.8 998.3 6.0
2015-Jan-20 01:00N 52°44' W 167°49'0 0.1 998.9 6.0
2015-Jan-19 23:50N 52°44' W 167°49'4 2.1 999.4 6.0
2015-Jan-19 21:50N 52°44' W 167°42'6 5.5 1000.5 6.0
2015-Jan-19 20:50N 52°45' W 167°33'1 0.5 1000.6 6.0
2015-Jan-19 19:00N 52°45' W 167°31'3 2.5 1000.9 6.0
2015-Jan-19 18:00N 52°44' W 167°27'1 0.6 1001.4 6.0
2015-Jan-19 17:00N 52°45' W 167°26'3 2.2 1001.8 6.0
2015-Jan-19 15:50N 52°45' W 167°22'0 0.5 1001.5 6.0
2015-Jan-19 14:50N 52°45' W 167°21'6 7.1 1001.6 6.0
2015-Jan-19 14:00N 52°44' W 167°11'0 0.2 1002.2 6.0
2015-Jan-19 12:00N 52°44' W 167°11'6 2.6 1002.7 6.0
2015-Jan-19 09:50N 52°44' W 167°02'2 1.0 1003.3 6.1
2015-Jan-19 08:00N 52°43' W 166°58'0 0.4 1004.0 6.0
2015-Jan-19 07:00N 52°43' W 166°59'4 1.8 1003.9 6.0
2015-Jan-19 04:50N 52°42' W 166°53'0 0.5 1003.7 6.0
2015-Jan-19 04:00N 52°42' W 166°52'0 0.1 1003.5 6.0
2015-Jan-19 02:50N 52°42' W 166°52'2 2.2 1003.3 6.0
2015-Jan-19 02:00N 52°42' W 166°49'3 3.3 1003.4 6.0
2015-Jan-19 01:00N 52°41' W 166°43'2 1.9 1003.3 6.0
2015-Jan-19 00:00N 52°41' W 166°40'0 0.0 1003.5 5.9
2015-Jan-18 23:00N 52°41' W 166°40'2 1.6 1003.6 5.9
2015-Jan-18 21:50N 52°42' W 166°37'0 0.0 1003.6 5.9
2015-Jan-18 20:50N 52°42' W 166°37'1 1.3 1003.6 5.9
2015-Jan-18 19:50N 52°42' W 166°35'0 0.2 1003.0 5.9
2015-Jan-18 19:00N 52°42' W 166°35'1 1.3 1002.5 5.9
2015-Jan-18 18:00N 52°42' W 166°33'1 1.0 1002.1 5.9
2015-Jan-18 16:50N 52°42' W 166°31'1 0.7 1001.7 5.9
2015-Jan-18 16:00N 52°42' W 166°30'1 0.8 1001.7 5.9
2015-Jan-18 14:50N 52°43' W 166°28'3 2.9 1001.4 5.9
2015-Jan-18 13:50N 52°44' W 166°24'3 1.8 1001.2 5.9
2015-Jan-18 12:00N 52°45' W 166°19'0 0.0 1000.5 5.9
2015-Jan-18 10:50N 52°45' W 166°19'1 0.4 1000.3 6.0
2015-Jan-18 08:50N 52°46' W 166°19'0 0.4 999.3 6.0
2015-Jan-18 07:50N 52°46' W 166°18'1 1.3 999.1 6.0
2015-Jan-18 07:00N 52°46' W 166°17'0 0.3 998.3 6.0
2015-Jan-18 06:00N 52°46' W 166°17'2 1.0 997.8 6.0
2015-Jan-18 04:00N 52°48' W 166°15'1 1.3 997.0 6.0
2015-Jan-18 02:50N 52°49' W 166°13'1 0.7 996.2 6.0
2015-Jan-18 01:50N 52°50' W 166°13'2 2.4 995.4 6.0
2015-Jan-18 00:50N 52°51' W 166°09'1 1.7 994.8 6.0
2015-Jan-18 00:00N 52°52' W 166°08'0 0.0 994.3 6.0
2015-Jan-17 23:00N 52°52' W 166°08'1 1.0 994.1 6.0
2015-Jan-17 22:00N 52°51' W 166°10'6 5.2 993.7 6.0
2015-Jan-17 20:50N 52°56' W 166°04'0 0.0 992.9 6.0
2015-Jan-17 20:00N 52°56' W 166°04'0 0.0 992.0 6.0
2015-Jan-17 18:50N 52°56' W 166°04'0 0.0 991.2 6.0
2015-Jan-17 18:00N 52°56' W 166°04'2 2.0 990.2 6.0
2015-Jan-17 16:50N 52°58' W 166°02'1 1.6 989.5 6.1
2015-Jan-17 16:00N 52°59' W 165°60'2 2.1 988.8 6.1
2015-Jan-17 15:00N 53°01' W 165°59'1 1.2 988.1 6.1
2015-Jan-17 13:50N 53°03' W 165°58'1 0.9 987.3 6.1
2015-Jan-17 12:50N 53°03' W 165°57'1 0.7 986.3 6.1
2015-Jan-17 12:00N 53°03' W 165°58'5 1.7 985.6 6.1
2015-Jan-17 08:50N 53°07' W 165°52'4 4.3 983.7 6.2
2015-Jan-17 07:50N 53°10' W 165°46'2 1.8 983.0 6.2
2015-Jan-17 06:50N 53°11' W 165°45'0 0.0 982.2 6.2
2015-Jan-17 05:50N 53°11' W 165°45'4 2.1 981.3 6.3
2015-Jan-17 03:50N 53°14' W 165°40'2 2.5 979.8 6.3
2015-Jan-17 02:50N 53°16' W 165°38'2 2.4 978.9 6.2
2015-Jan-17 02:00N 53°17' W 165°35'1 1.0 978.0 6.2
2015-Jan-17 01:00N 53°18' W 165°33'3 2.3 977.2 6.3
2015-Jan-16 23:50N 53°19' W 165°29'0 0.0 976.6 6.3
2015-Jan-16 22:50N 53°19' W 165°29'2 2.8 976.4 6.3
2015-Jan-16 22:00N 53°20' W 165°26'3 2.9 975.7 6.3
2015-Jan-16 21:00N 53°21' W 165°21'0 0.0 975.0 6.3
2015-Jan-16 20:00N 53°21' W 165°21'4 1.9 974.2 6.3
2015-Jan-16 17:50N 53°22' W 165°15'0 0.0 972.6 6.3
2015-Jan-16 17:00N 53°22' W 165°15'2 1.5 972.0 6.2
2015-Jan-16 16:00N 53°23' W 165°12'1 0.9 971.7 6.2
2015-Jan-16 14:50N 53°23' W 165°11'1 0.6 971.5 6.1
2015-Jan-16 13:50N 53°23' W 165°11'5 2.5 971.3 6.1
2015-Jan-16 11:50N 53°22' W 165°02'3 2.5 971.1 6.1
2015-Jan-16 10:50N 53°22' W 164°58'0 0.0 970.7 6.1
2015-Jan-16 09:50N 53°22' W 164°58'3 1.6 970.4 6.1
2015-Jan-16 07:50N 53°23' W 164°53'1 1.2 969.6 6.0
2015-Jan-16 06:50N 53°23' W 164°51'1 0.9 969.6 6.0
2015-Jan-16 05:50N 53°23' W 164°49'0 0.1 969.1 6.0
2015-Jan-16 04:50N 53°23' W 164°49'4 4.6 968.8 6.0
2015-Jan-16 04:00N 53°23' W 164°43'0 0.0 968.7 6.0
2015-Jan-16 03:00N 53°23' W 164°43'1 1.2 968.3 6.0
2015-Jan-16 02:00N 53°22' W 164°41'   968.0 6.0
Track history (hours):
 
Tides and Currents Weather Stations Pressure Air Temp Water Temp Dewpoint Dewpoint Depression Visibility Wind Speed Wind Dir Waves Ship Positions

Drifting buoy 46535

Last reported at 2015-Jan-26 01:00 UTC. Time now 2015-Jan-26 02:21 UTC.
Position N 53°07' W 170°36'.

Barometer 994.0 mb
Water temperature 5.6 ° C

Date/timePositionNaut miles runAvg speedWind from/ knotsBaromVisibWave heightAir tempDewpointWater temp
2015-Jan-26 01:00N 53°07' W 170°36'2 2.1 994.0 5.6
2015-Jan-26 00:00N 53°06' W 170°40'1 0.7 994.8 5.6
2015-Jan-25 22:50N 53°06' W 170°40'2 2.1 995.7 5.6
2015-Jan-25 21:50N 53°05' W 170°44'3 2.7 996.4 5.6
2015-Jan-25 20:50N 53°03' W 170°47'0 0.0 996.9 5.6
2015-Jan-25 20:00N 53°03' W 170°47'1 0.9 997.3 5.6
2015-Jan-25 18:50N 53°02' W 170°48'0 0.5 997.6 5.6
2015-Jan-25 17:50N 53°02' W 170°49'4 1.8 998.2 5.6
2015-Jan-25 15:50N 53°02' W 170°55'1 0.7 999.2 5.6
2015-Jan-25 14:50N 53°03' W 170°56'4 4.3 1000.0 5.6
2015-Jan-25 13:50N 53°03' W 171°03'0 0.2 1000.8 5.6
2015-Jan-25 13:00N 53°03' W 171°02'6 3.2 1001.4 5.6
2015-Jan-25 11:00N 53°03' W 171°13'3 2.8 1002.5 5.6
2015-Jan-25 09:50N 53°01' W 171°18'0 0.0 1003.0 5.6
2015-Jan-25 08:50N 53°01' W 171°18'2 1.8 1003.4 5.6
2015-Jan-25 08:00N 53°00' W 171°19'2 1.8 1003.5 5.6
2015-Jan-25 07:00N 52°58' W 171°21'1 1.0 1004.0 5.6
2015-Jan-25 05:50N 52°57' W 171°21'1 0.3 1004.4 5.6
2015-Jan-25 03:50N 52°58' W 171°21'1 1.1 1005.3 5.6
2015-Jan-25 02:50N 52°58' W 171°23'0 0.3 1005.8 5.6
2015-Jan-25 01:50N 52°58' W 171°22'3 2.6 1006.2 5.6
2015-Jan-25 00:50N 52°60' W 171°26'3 2.8 1006.8 5.6
2015-Jan-24 23:50N 52°60' W 171°31'1 1.3 1007.7 5.6
2015-Jan-24 23:00N 53°00' W 171°33'11 5.3 1008.4 5.6
2015-Jan-24 20:50N 52°55' W 171°49'0 0.5 1010.1 5.6
2015-Jan-24 20:00N 52°55' W 171°49'0 0.0 1010.1 5.6
2015-Jan-24 19:00N 52°55' W 171°49'6 2.8 1009.9 5.6
2015-Jan-24 17:00N 52°50' W 171°50'7 3.1 1010.1 5.7
2015-Jan-24 14:50N 52°43' W 171°50'0 0.2 1010.9 5.7
2015-Jan-24 14:00N 52°43' W 171°51'4 3.7 1011.3 5.7
2015-Jan-24 13:00N 52°40' W 171°47'0 0.0 1012.0 5.7
2015-Jan-24 12:00N 52°40' W 171°47'2 1.1 1012.0 5.7
2015-Jan-24 09:50N 52°38' W 171°46'1 0.9 1011.6 5.7
2015-Jan-24 08:50N 52°37' W 171°47'1 1.0 1011.8 5.7
2015-Jan-24 08:00N 52°36' W 171°46'3 3.4 1011.9 5.7
2015-Jan-24 07:00N 52°33' W 171°47'5 1.4 1011.5 5.7
2015-Jan-24 03:50N 52°29' W 171°42'3 2.9 1010.6 5.8
2015-Jan-24 02:50N 52°28' W 171°38'1 0.9 1010.0 5.8
2015-Jan-24 02:00N 52°27' W 171°38'1 0.5 1009.0 5.8
2015-Jan-24 00:00N 52°28' W 171°37'1 1.1 1008.2 5.8
2015-Jan-23 23:00N 52°28' W 171°39'0 0.0 1008.1 5.8
2015-Jan-23 22:00N 52°28' W 171°39'4 3.8 1008.0 5.8
2015-Jan-23 20:50N 52°25' W 171°45'2 0.9 1007.6 5.8
2015-Jan-23 19:00N 52°23' W 171°45'1 0.7 1006.2 5.8
2015-Jan-23 18:00N 52°23' W 171°46'5 5.2 1005.0 5.8
2015-Jan-23 17:00N 52°18' W 171°44'1 1.2 1004.3 5.8
2015-Jan-23 15:50N 52°16' W 171°43'2 2.1 1002.9 5.8
2015-Jan-23 14:50N 52°14' W 171°42'3 2.6 1002.4 5.9
2015-Jan-23 13:50N 52°13' W 171°38'4 4.9 1001.5 5.9
2015-Jan-23 13:00N 52°14' W 171°32'0 0.0 1001.0 5.9
2015-Jan-23 10:50N 52°14' W 171°32'0 0.0 999.1 5.9
2015-Jan-23 09:00N 52°14' W 171°32'2 1.3 998.3 5.9
2015-Jan-23 07:50N 52°15' W 171°30'0 0.1 997.5 5.9
2015-Jan-23 07:00N 52°15' W 171°30'2 1.8 996.4 5.9
2015-Jan-23 06:00N 52°16' W 171°27'2 2.1 995.7 5.9
2015-Jan-23 05:00N 52°15' W 171°24'0 0.1 994.1 5.9
2015-Jan-23 03:50N 52°15' W 171°24'2 2.7 993.2 5.9
2015-Jan-23 03:00N 52°15' W 171°20'0 0.0 991.8 5.9
2015-Jan-23 01:50N 52°15' W 171°20'2 2.8 991.1 5.9
2015-Jan-23 01:00N 52°16' W 171°17'2 1.6 989.9 5.9
2015-Jan-23 00:00N 52°17' W 171°15'1 0.7 990.0 6.0
2015-Jan-22 22:50N 52°17' W 171°13'0 0.3 989.6 6.0
2015-Jan-22 21:50N 52°17' W 171°14'0 0.4 989.4 6.0
2015-Jan-22 20:50N 52°18' W 171°14'2 0.9 988.5 6.0
2015-Jan-22 18:50N 52°17' W 171°12'0 0.5 986.7 6.0
2015-Jan-22 18:00N 52°16' W 171°11'3 2.6 985.9 6.0
2015-Jan-22 17:00N 52°15' W 171°08'3 2.6 985.1 6.0
2015-Jan-22 16:00N 52°14' W 171°04'4 3.5 984.4 6.0
2015-Jan-22 14:50N 52°13' W 170°58'0 0.0 983.7 6.0
2015-Jan-22 13:50N 52°13' W 170°58'8 2.7 983.2 6.0
2015-Jan-22 11:00N 52°15' W 170°46'9 1.7 982.5 6.0
2015-Jan-22 06:00N 52°18' W 170°33'2 1.2 981.0 6.1
2015-Jan-22 04:00N 52°18' W 170°29'0 0.0 980.3 6.2
2015-Jan-22 02:50N 52°18' W 170°29'3 3.5 979.7 6.1
2015-Jan-22 01:50N 52°19' W 170°23'4 3.7 979.2 6.1
2015-Jan-22 00:50N 52°19' W 170°17'0 0.0 979.1 6.1
2015-Jan-21 23:50N 52°19' W 170°17'2 2.3 979.1 6.1
2015-Jan-21 23:00N 52°19' W 170°14'4 1.9 979.4 6.0
2015-Jan-21 21:00N 52°22' W 170°10'3 2.5 979.7 6.0
2015-Jan-21 19:50N 52°24' W 170°06'1 0.3 979.8 6.0
2015-Jan-21 17:50N 52°24' W 170°06'1 1.7 979.9 6.0
2015-Jan-21 17:00N 52°23' W 170°05'0 0.0 980.2 6.0
2015-Jan-21 16:00N 52°23' W 170°05'2 2.1 980.4 6.0
2015-Jan-21 15:00N 52°22' W 170°02'3 1.5 981.0 6.1
2015-Jan-21 12:50N 52°20' W 169°58'1211.8 981.9 6.2
2015-Jan-21 11:50N 52°18' W 169°39'5 1.8 982.3 6.2
2015-Jan-21 09:00N 52°20' W 169°31'4 1.9 983.6 6.2
2015-Jan-21 07:00N 52°21' W 169°25'1 0.5 984.3 6.2
2015-Jan-21 05:50N 52°21' W 169°25'9 4.9 984.3 6.2
2015-Jan-21 04:00N 52°24' W 169°12'4 3.7 985.0 6.2
2015-Jan-21 03:00N 52°25' W 169°06'4 1.8 985.3 6.2
2015-Jan-21 00:50N 52°26' W 168°60'0 0.0 986.6 6.2
2015-Jan-21 00:00N 52°26' W 168°60'4 3.5 987.6 6.2
2015-Jan-20 22:50N 52°28' W 168°54'0 0.2 988.6 6.2
2015-Jan-20 22:00N 52°28' W 168°54'4 3.2 989.5 6.2
2015-Jan-20 20:50N 52°30' W 168°49'6 2.1 990.0 6.2
2015-Jan-20 17:50N 52°33' W 168°40'3 2.9 991.3 6.2
2015-Jan-20 16:50N 52°35' W 168°36'3 0.9 991.9 6.1
2015-Jan-20 14:00N 52°37' W 168°33'5 4.6 994.0 6.0
2015-Jan-20 13:00N 52°38' W 168°26'0 0.0 994.5 6.0
2015-Jan-20 11:50N 52°38' W 168°26'7 3.6 995.4 6.0
2015-Jan-20 09:50N 52°41' W 168°15'2 1.0 996.6 6.0
2015-Jan-20 08:00N 52°41' W 168°12'3 1.4 997.1 6.0
2015-Jan-20 05:50N 52°43' W 168°08'2 2.2 997.1 6.0
2015-Jan-20 05:00N 52°42' W 168°04'3 1.5 997.5 6.0
2015-Jan-20 03:00N 52°43' W 167°59'3 2.9 998.3 6.0
2015-Jan-20 02:00N 52°44' W 167°55'4 3.8 998.3 6.0
2015-Jan-20 01:00N 52°44' W 167°49'0 0.1 998.9 6.0
2015-Jan-19 23:50N 52°44' W 167°49'4 2.1 999.4 6.0
2015-Jan-19 21:50N 52°44' W 167°42'6 5.5 1000.5 6.0
2015-Jan-19 20:50N 52°45' W 167°33'1 0.5 1000.6 6.0
2015-Jan-19 19:00N 52°45' W 167°31'3 2.5 1000.9 6.0
2015-Jan-19 18:00N 52°44' W 167°27'1 0.6 1001.4 6.0
2015-Jan-19 17:00N 52°45' W 167°26'3 2.2 1001.8 6.0
2015-Jan-19 15:50N 52°45' W 167°22'0 0.5 1001.5 6.0
2015-Jan-19 14:50N 52°45' W 167°21'6 7.1 1001.6 6.0
2015-Jan-19 14:00N 52°44' W 167°11'0 0.2 1002.2 6.0
2015-Jan-19 12:00N 52°44' W 167°11'6 2.6 1002.7 6.0
2015-Jan-19 09:50N 52°44' W 167°02'2 1.0 1003.3 6.1
2015-Jan-19 08:00N 52°43' W 166°58'0 0.4 1004.0 6.0
2015-Jan-19 07:00N 52°43' W 166°59'4 1.8 1003.9 6.0
2015-Jan-19 04:50N 52°42' W 166°53'0 0.5 1003.7 6.0
2015-Jan-19 04:00N 52°42' W 166°52'0 0.1 1003.5 6.0
2015-Jan-19 02:50N 52°42' W 166°52'2 2.2 1003.3 6.0
2015-Jan-19 02:00N 52°42' W 166°49'3 3.3 1003.4 6.0
2015-Jan-19 01:00N 52°41' W 166°43'2 1.9 1003.3 6.0
2015-Jan-19 00:00N 52°41' W 166°40'0 0.0 1003.5 5.9
2015-Jan-18 23:00N 52°41' W 166°40'2 1.6 1003.6 5.9
2015-Jan-18 21:50N 52°42' W 166°37'0 0.0 1003.6 5.9
2015-Jan-18 20:50N 52°42' W 166°37'1 1.3 1003.6 5.9
2015-Jan-18 19:50N 52°42' W 166°35'0 0.2 1003.0 5.9
2015-Jan-18 19:00N 52°42' W 166°35'1 1.3 1002.5 5.9
2015-Jan-18 18:00N 52°42' W 166°33'1 1.0 1002.1 5.9
2015-Jan-18 16:50N 52°42' W 166°31'1 0.7 1001.7 5.9
2015-Jan-18 16:00N 52°42' W 166°30'1 0.8 1001.7 5.9
2015-Jan-18 14:50N 52°43' W 166°28'3 2.9 1001.4 5.9
2015-Jan-18 13:50N 52°44' W 166°24'3 1.8 1001.2 5.9
2015-Jan-18 12:00N 52°45' W 166°19'0 0.0 1000.5 5.9
2015-Jan-18 10:50N 52°45' W 166°19'1 0.4 1000.3 6.0
2015-Jan-18 08:50N 52°46' W 166°19'0 0.4 999.3 6.0
2015-Jan-18 07:50N 52°46' W 166°18'1 1.3 999.1 6.0
2015-Jan-18 07:00N 52°46' W 166°17'0 0.3 998.3 6.0
2015-Jan-18 06:00N 52°46' W 166°17'2 1.0 997.8 6.0
2015-Jan-18 04:00N 52°48' W 166°15'1 1.3 997.0 6.0
2015-Jan-18 02:50N 52°49' W 166°13'1 0.7 996.2 6.0
2015-Jan-18 01:50N 52°50' W 166°13'2 2.4 995.4 6.0
2015-Jan-18 00:50N 52°51' W 166°09'1 1.7 994.8 6.0
2015-Jan-18 00:00N 52°52' W 166°08'0 0.0 994.3 6.0
2015-Jan-17 23:00N 52°52' W 166°08'1 1.0 994.1 6.0
2015-Jan-17 22:00N 52°51' W 166°10'6 5.2 993.7 6.0
2015-Jan-17 20:50N 52°56' W 166°04'0 0.0 992.9 6.0
2015-Jan-17 20:00N 52°56' W 166°04'0 0.0 992.0 6.0
2015-Jan-17 18:50N 52°56' W 166°04'0 0.0 991.2 6.0
2015-Jan-17 18:00N 52°56' W 166°04'2 2.0 990.2 6.0
2015-Jan-17 16:50N 52°58' W 166°02'1 1.6 989.5 6.1
2015-Jan-17 16:00N 52°59' W 165°60'2 2.1 988.8 6.1
2015-Jan-17 15:00N 53°01' W 165°59'1 1.2 988.1 6.1
2015-Jan-17 13:50N 53°03' W 165°58'1 0.9 987.3 6.1
2015-Jan-17 12:50N 53°03' W 165°57'1 0.7 986.3 6.1
2015-Jan-17 12:00N 53°03' W 165°58'5 1.7 985.6 6.1
2015-Jan-17 08:50N 53°07' W 165°52'4 4.3 983.7 6.2
2015-Jan-17 07:50N 53°10' W 165°46'2 1.8 983.0 6.2
2015-Jan-17 06:50N 53°11' W 165°45'0 0.0 982.2 6.2
2015-Jan-17 05:50N 53°11' W 165°45'4 2.1 981.3 6.3
2015-Jan-17 03:50N 53°14' W 165°40'2 2.5 979.8 6.3
2015-Jan-17 02:50N 53°16' W 165°38'2 2.4 978.9 6.2
2015-Jan-17 02:00N 53°17' W 165°35'1 1.0 978.0 6.2
2015-Jan-17 01:00N 53°18' W 165°33'3 2.3 977.2 6.3
2015-Jan-16 23:50N 53°19' W 165°29'0 0.0 976.6 6.3
2015-Jan-16 22:50N 53°19' W 165°29'2 2.8 976.4 6.3
2015-Jan-16 22:00N 53°20' W 165°26'3 2.9 975.7 6.3
2015-Jan-16 21:00N 53°21' W 165°21'0 0.0 975.0 6.3
2015-Jan-16 20:00N 53°21' W 165°21'4 1.9 974.2 6.3
2015-Jan-16 17:50N 53°22' W 165°15'0 0.0 972.6 6.3
2015-Jan-16 17:00N 53°22' W 165°15'2 1.5 972.0 6.2
2015-Jan-16 16:00N 53°23' W 165°12'1 0.9 971.7 6.2
2015-Jan-16 14:50N 53°23' W 165°11'1 0.6 971.5 6.1
2015-Jan-16 13:50N 53°23' W 165°11'5 2.5 971.3 6.1
2015-Jan-16 11:50N 53°22' W 165°02'3 2.5 971.1 6.1
2015-Jan-16 10:50N 53°22' W 164°58'0 0.0 970.7 6.1
2015-Jan-16 09:50N 53°22' W 164°58'3 1.6 970.4 6.1
2015-Jan-16 07:50N 53°23' W 164°53'1 1.2 969.6 6.0
2015-Jan-16 06:50N 53°23' W 164°51'1 0.9 969.6 6.0
2015-Jan-16 05:50N 53°23' W 164°49'0 0.1 969.1 6.0
2015-Jan-16 04:50N 53°23' W 164°49'4 4.6 968.8 6.0
2015-Jan-16 04:00N 53°23' W 164°43'0 0.0 968.7 6.0
2015-Jan-16 03:00N 53°23' W 164°43'1 1.2 968.3 6.0
2015-Jan-16 02:00N 53°22' W 164°41'   968.0 6.0

Dump ship's entire track history